sensor_id;sensor_type;location;lat;lon;timestamp;P1;durP1;ratioP1;P2;durP2;ratioP2
49834;SDS011;35729;52.090;13.162;2024-02-28T00:00:55;52.10;;;25.58;;
49834;SDS011;35729;52.090;13.162;2024-02-28T00:03:26;55.80;;;26.05;;
49834;SDS011;35729;52.090;13.162;2024-02-28T00:05:57;60.75;;;27.00;;
49834;SDS011;35729;52.090;13.162;2024-02-28T00:08:25;59.83;;;26.40;;
49834;SDS011;35729;52.090;13.162;2024-02-28T00:10:53;56.55;;;26.63;;
49834;SDS011;35729;52.090;13.162;2024-02-28T00:13:22;55.05;;;25.05;;
49834;SDS011;35729;52.090;13.162;2024-02-28T00:15:50;59.90;;;26.80;;
49834;SDS011;35729;52.090;13.162;2024-02-28T00:18:19;55.05;;;24.30;;
49834;SDS011;35729;52.090;13.162;2024-02-28T00:20:50;56.80;;;25.75;;
49834;SDS011;35729;52.090;13.162;2024-02-28T00:23:19;51.72;;;24.55;;
49834;SDS011;35729;52.090;13.162;2024-02-28T00:25:47;52.28;;;25.10;;
49834;SDS011;35729;52.090;13.162;2024-02-28T00:28:16;54.63;;;24.88;;
49834;SDS011;35729;52.090;13.162;2024-02-28T00:30:44;56.08;;;26.13;;
49834;SDS011;35729;52.090;13.162;2024-02-28T00:33:13;55.28;;;25.83;;
49834;SDS011;35729;52.090;13.162;2024-02-28T00:35:41;49.95;;;22.75;;
49834;SDS011;35729;52.090;13.162;2024-02-28T00:38:18;49.80;;;23.25;;
49834;SDS011;35729;52.090;13.162;2024-02-28T00:40:47;50.05;;;24.02;;
49834;SDS011;35729;52.090;13.162;2024-02-28T00:43:16;52.30;;;25.08;;
49834;SDS011;35729;52.090;13.162;2024-02-28T00:45:44;51.30;;;25.17;;
49834;SDS011;35729;52.090;13.162;2024-02-28T00:48:12;49.53;;;24.05;;
49834;SDS011;35729;52.090;13.162;2024-02-28T00:50:54;48.67;;;22.92;;
49834;SDS011;35729;52.090;13.162;2024-02-28T00:53:25;46.83;;;23.52;;
49834;SDS011;35729;52.090;13.162;2024-02-28T00:55:53;46.50;;;22.95;;
49834;SDS011;35729;52.090;13.162;2024-02-28T00:58:22;49.72;;;24.90;;
49834;SDS011;35729;52.090;13.162;2024-02-28T01:00:51;49.00;;;23.58;;
49834;SDS011;35729;52.090;13.162;2024-02-28T01:03:20;46.15;;;23.55;;
49834;SDS011;35729;52.090;13.162;2024-02-28T01:05:48;43.90;;;23.45;;
49834;SDS011;35729;52.090;13.162;2024-02-28T01:08:17;47.13;;;23.73;;
49834;SDS011;35729;52.090;13.162;2024-02-28T01:10:48;44.47;;;22.17;;
49834;SDS011;35729;52.090;13.162;2024-02-28T01:13:17;46.20;;;23.23;;
49834;SDS011;35729;52.090;13.162;2024-02-28T01:15:46;48.38;;;24.27;;
49834;SDS011;35729;52.090;13.162;2024-02-28T01:18:14;46.70;;;23.50;;
49834;SDS011;35729;52.090;13.162;2024-02-28T01:20:43;49.25;;;24.75;;
49834;SDS011;35729;52.090;13.162;2024-02-28T01:23:11;48.95;;;24.17;;
49834;SDS011;35729;52.090;13.162;2024-02-28T01:25:39;46.92;;;23.38;;
49834;SDS011;35729;52.090;13.162;2024-02-28T01:28:10;50.78;;;23.02;;
49834;SDS011;35729;52.090;13.162;2024-02-28T01:30:39;49.95;;;24.05;;
49834;SDS011;35729;52.090;13.162;2024-02-28T01:33:07;53.97;;;25.42;;
49834;SDS011;35729;52.090;13.162;2024-02-28T01:35:44;55.65;;;25.20;;
49834;SDS011;35729;52.090;13.162;2024-02-28T01:38:13;54.17;;;23.10;;
49834;SDS011;35729;52.090;13.162;2024-02-28T01:40:44;55.95;;;25.80;;
49834;SDS011;35729;52.090;13.162;2024-02-28T01:43:15;53.85;;;23.85;;
49834;SDS011;35729;52.090;13.162;2024-02-28T01:45:45;57.75;;;24.70;;
49834;SDS011;35729;52.090;13.162;2024-02-28T01:48:13;53.70;;;24.02;;
49834;SDS011;35729;52.090;13.162;2024-02-28T01:50:42;54.80;;;24.90;;
49834;SDS011;35729;52.090;13.162;2024-02-28T01:53:10;56.08;;;25.45;;
49834;SDS011;35729;52.090;13.162;2024-02-28T01:55:39;62.10;;;24.90;;
49834;SDS011;35729;52.090;13.162;2024-02-28T01:58:08;56.88;;;24.63;;
49834;SDS011;35729;52.090;13.162;2024-02-28T02:00:40;60.58;;;26.00;;
49834;SDS011;35729;52.090;13.162;2024-02-28T02:03:09;64.15;;;26.00;;
49834;SDS011;35729;52.090;13.162;2024-02-28T02:05:37;67.35;;;26.58;;
49834;SDS011;35729;52.090;13.162;2024-02-28T02:08:06;58.22;;;25.38;;
49834;SDS011;35729;52.090;13.162;2024-02-28T02:10:34;59.40;;;25.02;;
49834;SDS011;35729;52.090;13.162;2024-02-28T02:13:06;63.47;;;26.02;;
49834;SDS011;35729;52.090;13.162;2024-02-28T02:15:35;66.90;;;28.27;;
49834;SDS011;35729;52.090;13.162;2024-02-28T02:18:06;69.72;;;28.27;;
49834;SDS011;35729;52.090;13.162;2024-02-28T02:20:35;63.97;;;26.35;;
49834;SDS011;35729;52.090;13.162;2024-02-28T02:23:11;60.42;;;25.33;;
49834;SDS011;35729;52.090;13.162;2024-02-28T02:25:43;56.15;;;25.00;;
49834;SDS011;35729;52.090;13.162;2024-02-28T02:28:12;57.88;;;24.67;;
49834;SDS011;35729;52.090;13.162;2024-02-28T02:30:41;53.58;;;25.75;;
49834;SDS011;35729;52.090;13.162;2024-02-28T02:33:10;56.58;;;25.30;;
49834;SDS011;35729;52.090;13.162;2024-02-28T02:35:38;52.97;;;24.48;;
49834;SDS011;35729;52.090;13.162;2024-02-28T02:38:07;53.63;;;25.55;;
49834;SDS011;35729;52.090;13.162;2024-02-28T02:40:38;62.65;;;26.30;;
49834;SDS011;35729;52.090;13.162;2024-02-28T02:43:06;56.45;;;24.27;;
49834;SDS011;35729;52.090;13.162;2024-02-28T02:45:35;52.03;;;23.10;;
49834;SDS011;35729;52.090;13.162;2024-02-28T02:48:04;56.35;;;24.48;;
49834;SDS011;35729;52.090;13.162;2024-02-28T02:50:33;54.47;;;23.17;;
49834;SDS011;35729;52.090;13.162;2024-02-28T02:53:01;54.50;;;22.95;;
49834;SDS011;35729;52.090;13.162;2024-02-28T02:55:30;62.17;;;24.23;;
49834;SDS011;35729;52.090;13.162;2024-02-28T02:58:01;61.97;;;25.05;;
49834;SDS011;35729;52.090;13.162;2024-02-28T03:00:29;62.28;;;24.38;;
49834;SDS011;35729;52.090;13.162;2024-02-28T03:02:58;54.42;;;22.63;;
49834;SDS011;35729;52.090;13.162;2024-02-28T03:05:26;60.97;;;24.52;;
49834;SDS011;35729;52.090;13.162;2024-02-28T03:07:55;58.72;;;23.38;;
49834;SDS011;35729;52.090;13.162;2024-02-28T03:10:23;52.92;;;21.50;;
49834;SDS011;35729;52.090;13.162;2024-02-28T03:12:52;57.55;;;24.48;;
49834;SDS011;35729;52.090;13.162;2024-02-28T03:15:23;50.60;;;21.63;;
49834;SDS011;35729;52.090;13.162;2024-02-28T03:17:51;49.65;;;21.05;;
49834;SDS011;35729;52.090;13.162;2024-02-28T03:20:20;51.95;;;22.25;;
49834;SDS011;35729;52.090;13.162;2024-02-28T03:22:49;48.30;;;20.10;;
49834;SDS011;35729;52.090;13.162;2024-02-28T03:25:17;46.95;;;19.75;;
49834;SDS011;35729;52.090;13.162;2024-02-28T03:27:45;51.55;;;21.45;;
49834;SDS011;35729;52.090;13.162;2024-02-28T03:30:14;48.30;;;21.05;;
49834;SDS011;35729;52.090;13.162;2024-02-28T03:32:45;49.55;;;20.83;;
49834;SDS011;35729;52.090;13.162;2024-02-28T03:35:14;46.40;;;20.45;;
49834;SDS011;35729;52.090;13.162;2024-02-28T03:37:43;46.90;;;21.27;;
49834;SDS011;35729;52.090;13.162;2024-02-28T03:40:12;44.80;;;20.85;;
49834;SDS011;35729;52.090;13.162;2024-02-28T03:42:40;45.53;;;21.10;;
49834;SDS011;35729;52.090;13.162;2024-02-28T03:45:08;42.20;;;20.63;;
49834;SDS011;35729;52.090;13.162;2024-02-28T03:47:37;45.17;;;21.58;;
49834;SDS011;35729;52.090;13.162;2024-02-28T03:50:08;44.05;;;21.33;;
49834;SDS011;35729;52.090;13.162;2024-02-28T03:52:37;43.42;;;19.33;;
49834;SDS011;35729;52.090;13.162;2024-02-28T03:55:05;42.42;;;19.60;;
49834;SDS011;35729;52.090;13.162;2024-02-28T03:57:34;40.25;;;19.83;;
49834;SDS011;35729;52.090;13.162;2024-02-28T04:00:03;41.65;;;19.35;;
49834;SDS011;35729;52.090;13.162;2024-02-28T04:02:33;41.17;;;20.15;;
49834;SDS011;35729;52.090;13.162;2024-02-28T04:05:02;41.80;;;20.02;;
49834;SDS011;35729;52.090;13.162;2024-02-28T04:07:34;47.60;;;21.00;;
49834;SDS011;35729;52.090;13.162;2024-02-28T04:10:02;40.00;;;20.08;;
49834;SDS011;35729;52.090;13.162;2024-02-28T04:12:32;42.00;;;19.98;;
49834;SDS011;35729;52.090;13.162;2024-02-28T04:15:00;40.75;;;20.80;;
49834;SDS011;35729;52.090;13.162;2024-02-28T04:17:29;45.85;;;21.90;;
49834;SDS011;35729;52.090;13.162;2024-02-28T04:19:58;40.15;;;20.15;;
49834;SDS011;35729;52.090;13.162;2024-02-28T04:22:29;39.67;;;18.30;;
49834;SDS011;35729;52.090;13.162;2024-02-28T04:25:00;46.42;;;21.38;;
49834;SDS011;35729;52.090;13.162;2024-02-28T04:27:29;42.50;;;20.10;;
49834;SDS011;35729;52.090;13.162;2024-02-28T04:29:57;43.58;;;20.73;;
49834;SDS011;35729;52.090;13.162;2024-02-28T04:32:25;43.65;;;19.88;;
49834;SDS011;35729;52.090;13.162;2024-02-28T04:34:54;39.70;;;19.67;;
49834;SDS011;35729;52.090;13.162;2024-02-28T04:37:22;40.22;;;19.02;;
49834;SDS011;35729;52.090;13.162;2024-02-28T04:39:51;42.55;;;19.98;;
49834;SDS011;35729;52.090;13.162;2024-02-28T04:42:22;34.97;;;17.25;;
49834;SDS011;35729;52.090;13.162;2024-02-28T04:44:50;35.83;;;17.73;;
49834;SDS011;35729;52.090;13.162;2024-02-28T04:47:19;35.13;;;16.67;;
49834;SDS011;35729;52.090;13.162;2024-02-28T04:49:48;31.90;;;16.52;;
49834;SDS011;35729;52.090;13.162;2024-02-28T04:52:16;34.63;;;16.42;;
49834;SDS011;35729;52.090;13.162;2024-02-28T04:54:45;32.10;;;15.77;;
49834;SDS011;35729;52.090;13.162;2024-02-28T04:57:13;32.45;;;16.15;;
49834;SDS011;35729;52.090;13.162;2024-02-28T04:59:45;34.70;;;17.08;;
49834;SDS011;35729;52.090;13.162;2024-02-28T05:02:14;35.67;;;16.65;;
49834;SDS011;35729;52.090;13.162;2024-02-28T05:04:43;34.03;;;17.23;;
49834;SDS011;35729;52.090;13.162;2024-02-28T05:07:11;28.45;;;16.08;;
49834;SDS011;35729;52.090;13.162;2024-02-28T05:09:40;32.90;;;17.17;;
49834;SDS011;35729;52.090;13.162;2024-02-28T05:12:08;30.70;;;16.20;;
49834;SDS011;35729;52.090;13.162;2024-02-28T05:14:37;34.00;;;16.80;;
49834;SDS011;35729;52.090;13.162;2024-02-28T05:17:08;31.42;;;17.08;;
49834;SDS011;35729;52.090;13.162;2024-02-28T05:19:36;32.08;;;17.23;;
49834;SDS011;35729;52.090;13.162;2024-02-28T05:22:05;38.22;;;18.58;;
49834;SDS011;35729;52.090;13.162;2024-02-28T05:24:34;36.05;;;17.98;;
49834;SDS011;35729;52.090;13.162;2024-02-28T05:27:03;36.35;;;19.35;;
49834;SDS011;35729;52.090;13.162;2024-02-28T05:29:31;26.90;;;16.35;;
49834;SDS011;35729;52.090;13.162;2024-02-28T05:32:00;30.98;;;16.08;;
49834;SDS011;35729;52.090;13.162;2024-02-28T05:34:31;30.58;;;15.80;;
49834;SDS011;35729;52.090;13.162;2024-02-28T05:36:59;26.98;;;14.85;;
49834;SDS011;35729;52.090;13.162;2024-02-28T05:39:28;23.20;;;12.98;;
49834;SDS011;35729;52.090;13.162;2024-02-28T05:42:04;24.85;;;13.27;;
49834;SDS011;35729;52.090;13.162;2024-02-28T05:44:32;20.15;;;11.60;;
49834;SDS011;35729;52.090;13.162;2024-02-28T05:47:02;18.73;;;11.45;;
49834;SDS011;35729;52.090;13.162;2024-02-28T05:49:33;19.73;;;11.63;;
49834;SDS011;35729;52.090;13.162;2024-02-28T05:52:01;16.08;;;9.90;;
49834;SDS011;35729;52.090;13.162;2024-02-28T05:54:30;16.13;;;10.90;;
49834;SDS011;35729;52.090;13.162;2024-02-28T05:56:59;16.13;;;10.13;;
49834;SDS011;35729;52.090;13.162;2024-02-28T05:59:27;19.25;;;11.23;;
49834;SDS011;35729;52.090;13.162;2024-02-28T06:01:56;17.70;;;10.65;;
49834;SDS011;35729;52.090;13.162;2024-02-28T06:04:24;17.73;;;11.20;;
49834;SDS011;35729;52.090;13.162;2024-02-28T06:06:55;18.23;;;11.23;;
49834;SDS011;35729;52.090;13.162;2024-02-28T06:09:24;16.33;;;11.30;;
49834;SDS011;35729;52.090;13.162;2024-02-28T06:11:53;18.55;;;11.50;;
49834;SDS011;35729;52.090;13.162;2024-02-28T06:14:21;19.02;;;11.70;;
49834;SDS011;35729;52.090;13.162;2024-02-28T06:16:50;18.85;;;11.13;;
49834;SDS011;35729;52.090;13.162;2024-02-28T06:19:18;20.85;;;11.77;;
49834;SDS011;35729;52.090;13.162;2024-02-28T06:21:47;22.73;;;12.20;;
49834;SDS011;35729;52.090;13.162;2024-02-28T06:24:18;19.45;;;12.20;;
49834;SDS011;35729;52.090;13.162;2024-02-28T06:26:46;21.77;;;13.10;;
49834;SDS011;35729;52.090;13.162;2024-02-28T06:29:15;22.42;;;12.75;;
49834;SDS011;35729;52.090;13.162;2024-02-28T06:31:49;21.58;;;13.07;;
49834;SDS011;35729;52.090;13.162;2024-02-28T06:34:18;26.30;;;14.20;;
49834;SDS011;35729;52.090;13.162;2024-02-28T06:36:47;25.42;;;14.70;;
49834;SDS011;35729;52.090;13.162;2024-02-28T06:39:18;26.38;;;15.27;;
49834;SDS011;35729;52.090;13.162;2024-02-28T06:41:47;26.23;;;15.75;;
49834;SDS011;35729;52.090;13.162;2024-02-28T06:44:17;30.13;;;16.05;;
49834;SDS011;35729;52.090;13.162;2024-02-28T06:46:46;28.15;;;16.15;;
49834;SDS011;35729;52.090;13.162;2024-02-28T06:49:14;29.27;;;16.75;;
49834;SDS011;35729;52.090;13.162;2024-02-28T06:51:43;30.58;;;16.73;;
49834;SDS011;35729;52.090;13.162;2024-02-28T06:54:12;27.08;;;15.00;;
49834;SDS011;35729;52.090;13.162;2024-02-28T06:56:43;29.52;;;16.67;;
49834;SDS011;35729;52.090;13.162;2024-02-28T06:59:11;29.50;;;15.52;;
49834;SDS011;35729;52.090;13.162;2024-02-28T07:01:40;26.77;;;15.68;;
49834;SDS011;35729;52.090;13.162;2024-02-28T07:04:08;30.45;;;15.40;;
49834;SDS011;35729;52.090;13.162;2024-02-28T07:06:37;32.33;;;16.77;;
49834;SDS011;35729;52.090;13.162;2024-02-28T07:09:07;25.38;;;15.07;;
49834;SDS011;35729;52.090;13.162;2024-02-28T07:11:37;30.45;;;16.73;;
49834;SDS011;35729;52.090;13.162;2024-02-28T07:14:08;29.85;;;17.13;;
49834;SDS011;35729;52.090;13.162;2024-02-28T07:16:37;31.38;;;16.75;;
49834;SDS011;35729;52.090;13.162;2024-02-28T07:19:05;31.65;;;17.23;;
49834;SDS011;35729;52.090;13.162;2024-02-28T07:21:35;33.35;;;17.55;;
49834;SDS011;35729;52.090;13.162;2024-02-28T07:24:03;31.42;;;18.42;;
49834;SDS011;35729;52.090;13.162;2024-02-28T07:26:32;31.10;;;16.17;;
49834;SDS011;35729;52.090;13.162;2024-02-28T07:29:01;28.92;;;16.17;;
49834;SDS011;35729;52.090;13.162;2024-02-28T07:31:32;28.65;;;16.33;;
49834;SDS011;35729;52.090;13.162;2024-02-28T07:34:00;25.52;;;15.77;;
49834;SDS011;35729;52.090;13.162;2024-02-28T07:36:37;27.20;;;15.70;;
49834;SDS011;35729;52.090;13.162;2024-02-28T07:39:05;26.60;;;16.30;;
49834;SDS011;35729;52.090;13.162;2024-02-28T07:41:37;30.05;;;15.55;;
49834;SDS011;35729;52.090;13.162;2024-02-28T07:44:06;33.78;;;17.80;;
49834;SDS011;35729;52.090;13.162;2024-02-28T07:46:39;32.40;;;16.70;;
49834;SDS011;35729;52.090;13.162;2024-02-28T07:49:09;31.98;;;18.00;;
49834;SDS011;35729;52.090;13.162;2024-02-28T07:51:38;34.25;;;19.23;;
49834;SDS011;35729;52.090;13.162;2024-02-28T07:54:07;35.53;;;19.15;;
49834;SDS011;35729;52.090;13.162;2024-02-28T07:56:36;34.50;;;18.90;;
49834;SDS011;35729;52.090;13.162;2024-02-28T07:59:04;33.13;;;19.52;;
49834;SDS011;35729;52.090;13.162;2024-02-28T08:01:33;32.75;;;18.60;;
49834;SDS011;35729;52.090;13.162;2024-02-28T08:04:07;36.35;;;19.05;;
49834;SDS011;35729;52.090;13.162;2024-02-28T08:06:35;37.25;;;20.70;;
49834;SDS011;35729;52.090;13.162;2024-02-28T08:09:04;34.75;;;19.25;;
49834;SDS011;35729;52.090;13.162;2024-02-28T08:11:32;36.22;;;19.77;;
49834;SDS011;35729;52.090;13.162;2024-02-28T08:14:01;34.75;;;20.40;;
49834;SDS011;35729;52.090;13.162;2024-02-28T08:16:29;39.83;;;21.90;;
49834;SDS011;35729;52.090;13.162;2024-02-28T08:18:58;39.15;;;21.42;;
49834;SDS011;35729;52.090;13.162;2024-02-28T08:21:29;37.45;;;20.80;;
49834;SDS011;35729;52.090;13.162;2024-02-28T08:23:57;34.45;;;19.35;;
49834;SDS011;35729;52.090;13.162;2024-02-28T08:26:28;32.92;;;20.00;;
49834;SDS011;35729;52.090;13.162;2024-02-28T08:28:57;35.40;;;19.50;;
49834;SDS011;35729;52.090;13.162;2024-02-28T08:31:25;33.65;;;19.55;;
49834;SDS011;35729;52.090;13.162;2024-02-28T08:33:54;33.45;;;18.42;;
49834;SDS011;35729;52.090;13.162;2024-02-28T08:36:22;39.30;;;21.25;;
49834;SDS011;35729;52.090;13.162;2024-02-28T08:38:54;37.50;;;20.92;;
49834;SDS011;35729;52.090;13.162;2024-02-28T08:41:22;33.55;;;20.15;;
49834;SDS011;35729;52.090;13.162;2024-02-28T08:43:51;34.78;;;19.23;;
49834;SDS011;35729;52.090;13.162;2024-02-28T08:46:19;36.38;;;21.00;;
49834;SDS011;35729;52.090;13.162;2024-02-28T08:48:48;32.97;;;20.02;;
49834;SDS011;35729;52.090;13.162;2024-02-28T08:51:16;32.15;;;19.45;;
49834;SDS011;35729;52.090;13.162;2024-02-28T08:53:45;31.77;;;18.95;;
49834;SDS011;35729;52.090;13.162;2024-02-28T08:56:16;32.67;;;18.80;;
49834;SDS011;35729;52.090;13.162;2024-02-28T08:58:44;37.17;;;20.00;;
49834;SDS011;35729;52.090;13.162;2024-02-28T09:01:13;33.95;;;19.75;;
49834;SDS011;35729;52.090;13.162;2024-02-28T09:03:43;33.38;;;19.98;;
49834;SDS011;35729;52.090;13.162;2024-02-28T09:06:11;32.10;;;18.63;;
49834;SDS011;35729;52.090;13.162;2024-02-28T09:08:39;29.30;;;18.10;;
49834;SDS011;35729;52.090;13.162;2024-02-28T09:11:08;32.63;;;20.92;;
49834;SDS011;35729;52.090;13.162;2024-02-28T09:13:40;30.67;;;18.52;;
49834;SDS011;35729;52.090;13.162;2024-02-28T09:16:08;27.50;;;17.15;;
49834;SDS011;35729;52.090;13.162;2024-02-28T09:18:37;28.15;;;18.58;;
49834;SDS011;35729;52.090;13.162;2024-02-28T09:21:07;30.38;;;18.70;;
49834;SDS011;35729;52.090;13.162;2024-02-28T09:23:36;28.20;;;17.23;;
49834;SDS011;35729;52.090;13.162;2024-02-28T09:26:11;31.70;;;19.52;;
49834;SDS011;35729;52.090;13.162;2024-02-28T09:28:42;25.50;;;15.70;;
49834;SDS011;35729;52.090;13.162;2024-02-28T09:31:10;26.77;;;16.98;;
49834;SDS011;35729;52.090;13.162;2024-02-28T09:33:40;27.55;;;17.48;;
49834;SDS011;35729;52.090;13.162;2024-02-28T09:36:09;28.65;;;16.90;;
49834;SDS011;35729;52.090;13.162;2024-02-28T09:38:38;25.60;;;16.83;;
49834;SDS011;35729;52.090;13.162;2024-02-28T09:41:07;28.27;;;18.08;;
49834;SDS011;35729;52.090;13.162;2024-02-28T09:43:40;24.73;;;15.57;;
49834;SDS011;35729;52.090;13.162;2024-02-28T09:46:12;26.65;;;15.77;;
49834;SDS011;35729;52.090;13.162;2024-02-28T09:48:42;23.83;;;16.02;;
49834;SDS011;35729;52.090;13.162;2024-02-28T09:51:11;21.95;;;15.35;;
49834;SDS011;35729;52.090;13.162;2024-02-28T09:53:41;21.08;;;13.50;;
49834;SDS011;35729;52.090;13.162;2024-02-28T09:56:10;24.13;;;15.75;;
49834;SDS011;35729;52.090;13.162;2024-02-28T09:58:39;21.65;;;14.50;;
49834;SDS011;35729;52.090;13.162;2024-02-28T10:01:11;24.23;;;15.88;;
49834;SDS011;35729;52.090;13.162;2024-02-28T10:03:42;23.55;;;16.13;;
49834;SDS011;35729;52.090;13.162;2024-02-28T10:06:13;22.70;;;15.05;;
49834;SDS011;35729;52.090;13.162;2024-02-28T10:08:41;21.45;;;15.05;;
49834;SDS011;35729;52.090;13.162;2024-02-28T10:11:12;24.95;;;15.48;;
49834;SDS011;35729;52.090;13.162;2024-02-28T10:13:46;21.50;;;14.82;;
49834;SDS011;35729;52.090;13.162;2024-02-28T10:16:17;22.45;;;14.32;;
49834;SDS011;35729;52.090;13.162;2024-02-28T10:18:45;21.27;;;14.68;;
49834;SDS011;35729;52.090;13.162;2024-02-28T10:21:14;21.67;;;14.27;;
49834;SDS011;35729;52.090;13.162;2024-02-28T10:23:43;20.25;;;13.70;;
49834;SDS011;35729;52.090;13.162;2024-02-28T10:26:12;24.20;;;15.00;;
49834;SDS011;35729;52.090;13.162;2024-02-28T10:28:41;18.88;;;12.13;;
49834;SDS011;35729;52.090;13.162;2024-02-28T10:31:10;24.23;;;14.50;;
49834;SDS011;35729;52.090;13.162;2024-02-28T10:33:41;21.50;;;13.23;;
49834;SDS011;35729;52.090;13.162;2024-02-28T10:36:10;20.55;;;13.48;;
49834;SDS011;35729;52.090;13.162;2024-02-28T10:38:38;18.83;;;12.48;;
49834;SDS011;35729;52.090;13.162;2024-02-28T10:41:07;17.85;;;12.52;;
49834;SDS011;35729;52.090;13.162;2024-02-28T10:43:38;19.92;;;12.93;;
49834;SDS011;35729;52.090;13.162;2024-02-28T10:46:08;20.30;;;13.45;;
49834;SDS011;35729;52.090;13.162;2024-02-28T10:48:37;21.38;;;13.25;;
49834;SDS011;35729;52.090;13.162;2024-02-28T10:51:08;17.80;;;12.60;;
49834;SDS011;35729;52.090;13.162;2024-02-28T10:53:43;19.58;;;13.02;;
49834;SDS011;35729;52.090;13.162;2024-02-28T10:56:17;18.83;;;12.52;;
49834;SDS011;35729;52.090;13.162;2024-02-28T10:58:49;17.08;;;11.82;;
49834;SDS011;35729;52.090;13.162;2024-02-28T11:01:19;21.08;;;13.38;;
49834;SDS011;35729;52.090;13.162;2024-02-28T11:03:48;19.88;;;12.90;;
49834;SDS011;35729;52.090;13.162;2024-02-28T11:06:20;17.95;;;12.27;;
49834;SDS011;35729;52.090;13.162;2024-02-28T11:08:51;17.92;;;12.60;;
49834;SDS011;35729;52.090;13.162;2024-02-28T11:11:21;18.80;;;12.05;;
49834;SDS011;35729;52.090;13.162;2024-02-28T11:13:54;17.80;;;12.35;;
49834;SDS011;35729;52.090;13.162;2024-02-28T11:16:28;18.85;;;12.57;;
49834;SDS011;35729;52.090;13.162;2024-02-28T11:18:58;17.13;;;12.50;;
49834;SDS011;35729;52.090;13.162;2024-02-28T11:21:33;19.63;;;13.48;;
49834;SDS011;35729;52.090;13.162;2024-02-28T11:24:04;20.58;;;13.05;;
49834;SDS011;35729;52.090;13.162;2024-02-28T11:26:34;17.58;;;11.93;;
49834;SDS011;35729;52.090;13.162;2024-02-28T11:29:08;17.17;;;12.23;;
49834;SDS011;35729;52.090;13.162;2024-02-28T11:31:37;18.13;;;12.45;;
49834;SDS011;35729;52.090;13.162;2024-02-28T11:34:05;17.27;;;12.85;;
49834;SDS011;35729;52.090;13.162;2024-02-28T11:36:37;18.20;;;12.05;;
49834;SDS011;35729;52.090;13.162;2024-02-28T11:39:06;63.65;;;34.42;;
49834;SDS011;35729;52.090;13.162;2024-02-28T11:41:34;17.98;;;13.10;;
49834;SDS011;35729;52.090;13.162;2024-02-28T11:44:04;17.80;;;12.15;;
49834;SDS011;35729;52.090;13.162;2024-02-28T11:46:33;17.90;;;12.10;;
49834;SDS011;35729;52.090;13.162;2024-02-28T11:49:01;18.42;;;12.07;;
49834;SDS011;35729;52.090;13.162;2024-02-28T11:51:30;16.70;;;11.93;;
49834;SDS011;35729;52.090;13.162;2024-02-28T11:54:03;16.63;;;11.63;;
49834;SDS011;35729;52.090;13.162;2024-02-28T11:56:32;17.38;;;11.60;;
49834;SDS011;35729;52.090;13.162;2024-02-28T11:59:00;18.90;;;12.73;;
49834;SDS011;35729;52.090;13.162;2024-02-28T12:01:35;17.30;;;12.10;;
49834;SDS011;35729;52.090;13.162;2024-02-28T12:04:05;16.27;;;11.50;;
49834;SDS011;35729;52.090;13.162;2024-02-28T12:06:35;16.90;;;11.52;;
49834;SDS011;35729;52.090;13.162;2024-02-28T12:09:07;17.95;;;12.15;;
49834;SDS011;35729;52.090;13.162;2024-02-28T12:11:37;18.23;;;11.82;;
49834;SDS011;35729;52.090;13.162;2024-02-28T12:14:06;15.48;;;11.05;;
49834;SDS011;35729;52.090;13.162;2024-02-28T12:16:37;15.65;;;10.85;;
49834;SDS011;35729;52.090;13.162;2024-02-28T12:19:12;13.52;;;10.40;;
49834;SDS011;35729;52.090;13.162;2024-02-28T12:21:41;16.52;;;11.20;;
49834;SDS011;35729;52.090;13.162;2024-02-28T12:24:12;15.48;;;10.50;;
49834;SDS011;35729;52.090;13.162;2024-02-28T12:26:41;16.88;;;11.80;;
49834;SDS011;35729;52.090;13.162;2024-02-28T12:29:10;14.82;;;10.50;;
49834;SDS011;35729;52.090;13.162;2024-02-28T12:31:38;13.50;;;9.60;;
49834;SDS011;35729;52.090;13.162;2024-02-28T12:34:07;15.38;;;10.65;;
49834;SDS011;35729;52.090;13.162;2024-02-28T12:36:35;16.38;;;10.93;;
49834;SDS011;35729;52.090;13.162;2024-02-28T12:39:04;15.40;;;10.50;;
49834;SDS011;35729;52.090;13.162;2024-02-28T12:41:39;15.77;;;11.00;;
49834;SDS011;35729;52.090;13.162;2024-02-28T12:44:07;14.68;;;11.02;;
49834;SDS011;35729;52.090;13.162;2024-02-28T12:46:36;14.95;;;10.85;;
49834;SDS011;35729;52.090;13.162;2024-02-28T12:49:05;16.67;;;11.27;;
49834;SDS011;35729;52.090;13.162;2024-02-28T12:51:38;14.93;;;10.00;;
49834;SDS011;35729;52.090;13.162;2024-02-28T12:54:14;16.77;;;10.68;;
49834;SDS011;35729;52.090;13.162;2024-02-28T12:56:46;13.40;;;9.95;;
49834;SDS011;35729;52.090;13.162;2024-02-28T12:59:14;14.10;;;10.10;;
49834;SDS011;35729;52.090;13.162;2024-02-28T13:01:43;15.18;;;11.10;;
49834;SDS011;35729;52.090;13.162;2024-02-28T13:04:12;15.38;;;10.50;;
49834;SDS011;35729;52.090;13.162;2024-02-28T13:06:41;13.65;;;9.80;;
49834;SDS011;35729;52.090;13.162;2024-02-28T13:09:09;13.88;;;10.13;;
49834;SDS011;35729;52.090;13.162;2024-02-28T13:11:40;12.40;;;9.35;;
49834;SDS011;35729;52.090;13.162;2024-02-28T13:14:11;14.20;;;10.05;;
49834;SDS011;35729;52.090;13.162;2024-02-28T13:16:39;11.25;;;8.95;;
49834;SDS011;35729;52.090;13.162;2024-02-28T13:19:08;14.50;;;9.57;;
49834;SDS011;35729;52.090;13.162;2024-02-28T13:21:36;13.32;;;9.77;;
49834;SDS011;35729;52.090;13.162;2024-02-28T13:24:05;12.60;;;9.38;;
49834;SDS011;35729;52.090;13.162;2024-02-28T13:26:34;13.70;;;9.95;;
49834;SDS011;35729;52.090;13.162;2024-02-28T13:29:02;12.32;;;9.68;;
49834;SDS011;35729;52.090;13.162;2024-02-28T13:31:34;10.57;;;9.07;;
49834;SDS011;35729;52.090;13.162;2024-02-28T13:34:03;11.13;;;8.95;;
49834;SDS011;35729;52.090;13.162;2024-02-28T13:36:32;11.75;;;8.57;;
49834;SDS011;35729;52.090;13.162;2024-02-28T13:39:02;12.07;;;9.40;;
49834;SDS011;35729;52.090;13.162;2024-02-28T13:41:31;13.40;;;9.48;;
49834;SDS011;35729;52.090;13.162;2024-02-28T13:43:59;13.52;;;9.00;;
49834;SDS011;35729;52.090;13.162;2024-02-28T13:46:28;12.68;;;9.38;;
49834;SDS011;35729;52.090;13.162;2024-02-28T13:48:59;10.43;;;8.73;;
49834;SDS011;35729;52.090;13.162;2024-02-28T13:51:29;9.95;;;8.20;;
49834;SDS011;35729;52.090;13.162;2024-02-28T13:53:58;9.45;;;7.50;;
49834;SDS011;35729;52.090;13.162;2024-02-28T13:56:26;10.57;;;8.05;;
49834;SDS011;35729;52.090;13.162;2024-02-28T13:58:55;10.55;;;8.23;;
49834;SDS011;35729;52.090;13.162;2024-02-28T14:01:24;9.68;;;7.60;;
49834;SDS011;35729;52.090;13.162;2024-02-28T14:03:53;12.13;;;9.10;;
49834;SDS011;35729;52.090;13.162;2024-02-28T14:06:24;9.77;;;7.93;;
49834;SDS011;35729;52.090;13.162;2024-02-28T14:08:53;10.43;;;7.93;;
49834;SDS011;35729;52.090;13.162;2024-02-28T14:11:22;11.38;;;8.98;;
49834;SDS011;35729;52.090;13.162;2024-02-28T14:13:50;10.55;;;7.38;;
49834;SDS011;35729;52.090;13.162;2024-02-28T14:16:19;11.02;;;8.45;;
49834;SDS011;35729;52.090;13.162;2024-02-28T14:18:47;9.68;;;7.93;;
49834;SDS011;35729;52.090;13.162;2024-02-28T14:21:16;9.82;;;7.90;;
49834;SDS011;35729;52.090;13.162;2024-02-28T14:23:47;10.30;;;8.25;;